createdAt,value
2017-10-21T00:00:58.699Z,12.07
2017-10-21T00:01:58.689Z,11.98
2017-10-21T00:02:58.685Z,11.98
2017-10-21T00:03:58.676Z,11.86
2017-10-21T00:04:58.670Z,11.83
2017-10-21T00:05:58.662Z,11.82
2017-10-21T00:06:58.650Z,11.83
2017-10-21T00:07:58.639Z,11.79
2017-10-21T00:08:58.637Z,11.79
2017-10-21T00:09:58.633Z,11.78
2017-10-21T00:10:58.621Z,11.69
2017-10-21T00:11:58.608Z,11.75
2017-10-21T00:12:58.606Z,11.76
2017-10-21T00:13:58.591Z,11.64
2017-10-21T00:14:58.585Z,11.55
2017-10-21T00:15:58.580Z,11.55
2017-10-21T00:16:58.579Z,11.55
2017-10-21T00:17:58.564Z,11.52
2017-10-21T00:18:58.557Z,11.52
2017-10-21T00:19:58.545Z,11.51
2017-10-21T00:20:58.536Z,11.57
2017-10-21T00:21:58.207Z,11.51
2017-10-21T00:22:58.524Z,11.46
2017-10-21T00:23:58.195Z,11.42
2017-10-21T00:24:58.508Z,11.39
2017-10-21T00:25:58.496Z,11.46
2017-10-21T00:26:58.166Z,11.43
2017-10-21T00:27:58.477Z,11.37
2017-10-21T00:28:58.474Z,11.46
2017-10-21T00:29:58.471Z,11.44
2017-10-21T00:30:58.457Z,11.42
2017-10-21T00:31:58.448Z,11.42
2017-10-21T00:32:58.460Z,11.39
2017-10-21T00:33:58.430Z,11.51
2017-10-21T00:34:58.101Z,11.35
2017-10-21T00:35:58.415Z,11.39
2017-10-21T00:36:58.410Z,11.43
2017-10-21T00:37:58.400Z,11.4
2017-10-21T00:38:58.390Z,11.47
2017-10-21T00:39:58.387Z,11.46
2017-10-21T00:40:58.369Z,11.39
2017-10-21T00:41:58.364Z,11.46
2017-10-21T00:42:58.357Z,11.47
2017-10-21T00:43:58.356Z,11.51
2017-10-21T00:44:58.013Z,11.55
2017-10-21T00:45:58.329Z,11.54
2017-10-21T00:46:58.331Z,11.49
2017-10-21T00:47:58.315Z,11.57
2017-10-21T00:48:58.304Z,11.55
2017-10-21T00:49:58.295Z,11.64
2017-10-21T00:50:57.964Z,11.65
2017-10-21T00:51:58.281Z,11.7
2017-10-21T00:52:57.950Z,11.72
2017-10-21T00:53:58.263Z,11.75
2017-10-21T00:54:58.252Z,11.75
2017-10-21T00:55:57.922Z,11.76
2017-10-21T00:56:58.237Z,11.94
2017-10-21T00:57:57.583Z,11.83
2017-10-21T00:58:58.223Z,11.88
2017-10-21T00:59:58.217Z,11.99
2017-10-21T01:00:58.201Z,11.99
2017-10-21T01:01:58.203Z,11.98
2017-10-21T01:02:58.193Z,11.96
2017-10-21T01:03:58.202Z,11.98
2017-10-21T01:04:58.171Z,11.96
2017-10-21T01:05:58.161Z,11.95
2017-10-21T01:06:58.160Z,12.01
2017-10-21T01:07:57.824Z,11.98
2017-10-21T01:08:58.134Z,11.96
2017-10-21T01:09:58.132Z,11.99
2017-10-21T01:10:58.121Z,11.99
2017-10-21T01:11:58.113Z,11.99
2017-10-21T01:12:58.109Z,11.96
2017-10-21T01:13:58.098Z,11.96
2017-10-21T01:14:57.769Z,11.94
2017-10-21T01:15:57.763Z,11.95
2017-10-21T01:16:57.751Z,12.01
2017-10-21T01:17:58.069Z,12.01
2017-10-21T01:18:58.086Z,12.01
2017-10-21T01:19:58.048Z,12.04
2017-10-21T01:20:57.713Z,12.04
2017-10-21T01:21:58.037Z,12.05
2017-10-21T01:22:58.025Z,12.17
2017-10-21T01:23:58.019Z,12.16
2017-10-21T01:24:58.024Z,12.14
2017-10-21T01:25:57.998Z,12.16
2017-10-21T01:26:57.996Z,12.27
2017-10-21T01:27:57.988Z,12.2
2017-10-21T01:28:57.983Z,12.19
2017-10-21T01:29:57.649Z,12.19
2017-10-21T01:30:57.959Z,12.28
2017-10-21T01:31:57.955Z,12.24
2017-10-21T01:32:57.947Z,12.35
2017-10-21T01:33:57.611Z,12.34
2017-10-21T01:34:57.930Z,12.42
2017-10-21T01:35:57.923Z,12.35
2017-10-21T01:36:57.914Z,12.46
2017-10-21T01:37:57.897Z,12.52
2017-10-21T01:38:57.897Z,12.45
2017-10-21T01:39:57.885Z,12.46
2017-10-21T01:40:57.879Z,12.46
2017-10-21T01:41:57.548Z,12.47
2017-10-21T01:42:57.864Z,12.47
2017-10-21T01:43:57.860Z,12.53
2017-10-21T01:44:57.536Z,12.53
2017-10-21T01:45:57.840Z,12.57
2017-10-21T01:46:57.508Z,12.5
2017-10-21T01:47:57.829Z,12.49
2017-10-21T01:48:57.498Z,12.49
2017-10-21T01:49:57.813Z,12.49
2017-10-21T01:50:57.800Z,12.5
2017-10-21T01:51:57.801Z,12.49
2017-10-21T01:52:57.787Z,12.5
2017-10-21T01:53:57.787Z,12.46
2017-10-21T01:54:57.777Z,12.49
2017-10-21T01:55:57.764Z,12.42
2017-10-21T01:56:57.758Z,12.41
2017-10-21T01:57:57.758Z,12.42
2017-10-21T01:58:57.744Z,12.49
2017-10-21T01:59:57.413Z,12.46
2017-10-21T02:00:57.730Z,12.5
2017-10-21T02:01:57.401Z,12.42
2017-10-21T02:02:57.715Z,12.47
2017-10-21T02:03:57.701Z,12.37
2017-10-21T02:04:57.378Z,12.35
2017-10-21T02:05:57.685Z,12.37
2017-10-21T02:06:57.676Z,12.38
2017-10-21T02:07:57.670Z,12.32
2017-10-21T02:08:57.671Z,12.31
2017-10-21T02:09:57.329Z,12.24
2017-10-21T02:10:57.644Z,12.29
2017-10-21T02:11:57.637Z,12.37
2017-10-21T02:12:57.628Z,12.31
2017-10-21T02:13:57.633Z,12.27
2017-10-21T02:14:57.293Z,12.31
2017-10-21T02:15:57.608Z,12.29
2017-10-21T02:16:57.601Z,12.27
2017-10-21T02:17:57.595Z,12.34
2017-10-21T02:18:57.589Z,12.29
2017-10-21T02:19:57.578Z,12.19
2017-10-21T02:20:57.569Z,12.27
2017-10-21T02:21:57.557Z,12.16
2017-10-21T02:22:57.552Z,12.2
2017-10-21T02:23:57.542Z,12.21
2017-10-21T02:24:57.537Z,12.24
2017-10-21T02:25:57.210Z,12.2
2017-10-21T02:26:57.518Z,12.19
2017-10-21T02:27:57.510Z,12.2
2017-10-21T02:28:57.504Z,12.16
2017-10-21T02:29:57.171Z,12.21
2017-10-21T02:30:57.494Z,12.19
2017-10-21T02:31:57.161Z,12.17
2017-10-21T02:32:57.474Z,12.17
2017-10-21T02:33:57.471Z,12.1
2017-10-21T02:34:57.459Z,12.16
2017-10-21T02:35:57.450Z,12.04
2017-10-21T02:36:57.441Z,12.05
2017-10-21T02:37:57.435Z,12.04
2017-10-21T02:38:57.430Z,12.05
2017-10-21T02:39:57.414Z,12.09
2017-10-21T02:40:57.084Z,12.07
2017-10-21T02:41:57.077Z,11.99
2017-10-21T02:42:57.393Z,12.02
2017-10-21T02:43:57.389Z,12.01
2017-10-21T02:44:57.382Z,11.96
2017-10-21T02:45:57.376Z,11.99
2017-10-21T02:46:57.043Z,11.88
2017-10-21T02:47:57.024Z,12.02
2017-10-21T02:48:57.019Z,11.95
2017-10-21T02:49:57.367Z,11.86
2017-10-21T02:50:57.009Z,11.9
2017-10-21T02:51:57.320Z,11.9
2017-10-21T02:52:56.986Z,11.82
2017-10-21T02:53:57.325Z,11.82
2017-10-21T02:54:57.295Z,11.83
2017-10-21T02:55:57.289Z,11.85
2017-10-21T02:56:56.956Z,11.83
2017-10-21T02:57:57.273Z,11.79
2017-10-21T02:58:57.260Z,11.88
2017-10-21T02:59:56.935Z,11.79
2017-10-21T03:00:57.274Z,11.79
2017-10-21T03:01:57.247Z,11.73
2017-10-21T03:02:56.912Z,11.8
2017-10-21T03:03:56.903Z,11.73
2017-10-21T03:04:57.215Z,11.65
2017-10-21T03:05:57.216Z,11.67
2017-10-21T03:06:57.203Z,11.73
2017-10-21T03:07:57.189Z,11.76
2017-10-21T03:08:57.179Z,11.73
2017-10-21T03:09:57.173Z,11.73
2017-10-21T03:10:57.169Z,11.72
2017-10-21T03:11:57.164Z,11.76
2017-10-21T03:12:56.823Z,11.72
2017-10-21T03:13:56.818Z,11.69
2017-10-21T03:14:57.136Z,11.61
2017-10-21T03:15:57.154Z,11.67
2017-10-21T03:16:57.119Z,11.54
2017-10-21T03:17:56.785Z,11.52
2017-10-21T03:18:57.103Z,11.55
2017-10-21T03:19:56.771Z,11.49
2017-10-21T03:20:57.083Z,11.47
2017-10-21T03:21:57.074Z,11.54
2017-10-21T03:22:57.068Z,11.46
2017-10-21T03:23:57.061Z,11.46
2017-10-21T03:24:57.056Z,11.39
2017-10-21T03:25:57.044Z,11.43
2017-10-21T03:26:57.031Z,11.36
2017-10-21T03:27:57.027Z,11.35
2017-10-21T03:28:57.018Z,11.36
2017-10-21T03:29:56.384Z,11.32
2017-10-21T03:30:56.675Z,11.4
2017-10-21T03:31:56.992Z,11.19
2017-10-21T03:32:56.986Z,11.27
2017-10-21T03:33:56.974Z,11.21
2017-10-21T03:34:56.968Z,11.22
2017-10-21T03:35:56.957Z,11.14
2017-10-21T03:36:56.626Z,11.15
2017-10-21T03:37:56.611Z,11.14
2017-10-21T03:38:56.932Z,11.07
2017-10-21T03:39:56.929Z,10.92
2017-10-21T03:40:56.914Z,11.03
2017-10-21T03:41:56.903Z,10.92
2017-10-21T03:42:56.896Z,10.91
2017-10-21T03:43:56.903Z,10.89
2017-10-21T03:44:56.883Z,11.07
2017-10-21T03:45:56.553Z,11.06
2017-10-21T03:46:56.858Z,11.06
2017-10-21T03:47:56.861Z,11.11
2017-10-21T03:48:56.840Z,11.07
2017-10-21T03:49:56.835Z,11.06
2017-10-21T03:50:56.828Z,11.19
2017-10-21T03:51:56.818Z,11.18
2017-10-21T03:52:56.811Z,11.27
2017-10-21T03:53:56.799Z,11.25
2017-10-21T03:54:56.785Z,11.21
2017-10-21T03:55:56.463Z,11.27
2017-10-21T03:56:56.777Z,11.32
2017-10-21T03:57:56.442Z,11.39
2017-10-21T03:58:56.761Z,11.35
2017-10-21T03:59:56.747Z,11.4
2017-10-21T04:00:56.416Z,11.43
2017-10-21T04:01:56.412Z,11.44
2017-10-21T04:02:56.400Z,11.44
2017-10-21T04:03:56.711Z,11.52
2017-10-21T04:04:56.716Z,11.46
2017-10-21T04:05:56.704Z,11.49
2017-10-21T04:06:56.692Z,11.6
2017-10-21T04:07:56.693Z,11.55
2017-10-21T04:08:56.352Z,11.57
2017-10-21T04:09:56.663Z,11.49
2017-10-21T04:10:56.665Z,11.64
2017-10-21T04:11:56.648Z,11.64
2017-10-21T04:12:56.646Z,11.75
2017-10-21T04:13:56.308Z,11.73
2017-10-21T04:14:56.622Z,11.73
2017-10-21T04:15:56.608Z,11.75
2017-10-21T04:16:56.607Z,11.82
2017-10-21T04:17:56.276Z,11.83
2017-10-21T04:18:56.590Z,11.83
2017-10-21T04:19:56.586Z,11.85
2017-10-21T04:20:56.597Z,11.8
2017-10-21T04:21:56.562Z,11.86
2017-10-21T04:22:56.555Z,11.94
2017-10-21T04:23:56.553Z,11.88
2017-10-21T04:24:56.537Z,11.8
2017-10-21T04:25:56.533Z,11.9
2017-10-21T04:26:56.530Z,11.9
2017-10-21T04:27:56.514Z,11.95
2017-10-21T04:28:56.506Z,11.99
2017-10-21T04:29:56.496Z,12.04
2017-10-21T04:30:56.489Z,12.05
2017-10-21T04:31:56.157Z,11.98
2017-10-21T04:32:56.473Z,11.96
2017-10-21T04:33:56.463Z,12.09
2017-10-21T04:34:56.454Z,12.07
2017-10-21T04:35:56.448Z,12.04
2017-10-21T04:36:56.436Z,12.04
2017-10-21T04:37:56.106Z,12.01
2017-10-21T04:38:56.419Z,11.99
2017-10-21T04:39:56.414Z,12.04
2017-10-21T04:40:56.081Z,12.05
2017-10-21T04:41:56.399Z,12.07
2017-10-21T04:42:56.392Z,12.09
2017-10-21T04:43:56.396Z,12.12
2017-10-21T04:44:56.044Z,12.01
2017-10-21T04:45:56.367Z,12.13
2017-10-21T04:46:56.358Z,12.02
2017-10-21T04:47:56.355Z,12.01
2017-10-21T04:48:56.338Z,11.9
2017-10-21T04:49:56.334Z,11.91
2017-10-21T04:50:56.327Z,11.82
2017-10-21T04:51:56.316Z,11.85
2017-10-21T04:52:56.320Z,11.8
2017-10-21T04:53:56.321Z,11.8
2017-10-21T04:54:56.288Z,11.7
2017-10-21T04:55:55.962Z,11.69
2017-10-21T04:56:56.279Z,11.64
2017-10-21T04:57:56.269Z,11.57
2017-10-21T04:58:55.934Z,11.65
2017-10-21T04:59:56.251Z,11.6
2017-10-21T05:00:55.917Z,11.61
2017-10-21T05:01:56.243Z,11.69
2017-10-21T05:02:56.227Z,11.67
2017-10-21T05:03:56.222Z,11.73
2017-10-21T05:04:56.213Z,11.72
2017-10-21T05:05:56.199Z,11.69
2017-10-21T05:06:56.194Z,11.75
2017-10-21T05:07:56.191Z,11.69
2017-10-21T05:08:56.178Z,11.72
2017-10-21T05:09:56.173Z,11.82
2017-10-21T05:10:56.161Z,11.83
2017-10-21T05:11:56.153Z,11.8
2017-10-21T05:12:56.146Z,11.8
2017-10-21T05:13:56.130Z,11.95
2017-10-21T05:14:56.139Z,11.83
2017-10-21T05:15:55.795Z,11.91
2017-10-21T05:16:56.117Z,11.82
2017-10-21T05:17:56.099Z,11.91
2017-10-21T05:18:56.094Z,11.99
2017-10-21T05:19:56.083Z,11.96
2017-10-21T05:20:56.088Z,11.95
2017-10-21T05:21:55.748Z,11.99
2017-10-21T05:22:56.059Z,11.95
2017-10-21T05:23:56.053Z,12.01
2017-10-21T05:24:55.724Z,11.98
2017-10-21T05:25:56.035Z,11.91
2017-10-21T05:26:56.034Z,11.99
2017-10-21T05:27:55.705Z,11.96
2017-10-21T05:28:56.015Z,11.95
2017-10-21T05:29:56.007Z,12.02
2017-10-21T05:30:55.999Z,11.98
2017-10-21T05:31:55.992Z,11.99
2017-10-21T05:32:55.652Z,12.1
2017-10-21T05:33:55.973Z,12.05
2017-10-21T05:34:55.970Z,12.1
2017-10-21T05:35:55.632Z,12.1
2017-10-21T05:36:55.944Z,12.04
2017-10-21T05:37:55.941Z,12.02
2017-10-21T05:38:55.931Z,12.01
2017-10-21T05:39:55.920Z,12.12
2017-10-21T05:40:55.913Z,12.07
2017-10-21T05:41:55.908Z,12.12
2017-10-21T05:42:55.894Z,12.2
2017-10-21T05:43:55.896Z,12.13
2017-10-21T05:44:55.884Z,12.12
2017-10-21T05:45:55.872Z,12.19
2017-10-21T05:46:55.872Z,12.1
2017-10-21T05:47:55.531Z,12.17
2017-10-21T05:48:55.850Z,12.16
2017-10-21T05:49:55.851Z,12.2
2017-10-21T05:50:55.513Z,12.19
2017-10-21T05:51:55.821Z,12.19
2017-10-21T05:52:55.820Z,12.24
2017-10-21T05:53:55.807Z,12.24
2017-10-21T05:54:55.473Z,12.23
2017-10-21T05:55:55.809Z,12.29
2017-10-21T05:56:55.783Z,12.23
2017-10-21T05:57:55.778Z,12.27
2017-10-21T05:58:55.772Z,12.39
2017-10-21T05:59:55.772Z,12.38
2017-10-21T06:00:55.755Z,12.38
2017-10-21T06:01:55.742Z,12.45
2017-10-21T06:02:55.740Z,12.49
2017-10-21T06:03:55.405Z,12.45
2017-10-21T06:04:55.726Z,12.45
2017-10-21T06:05:55.387Z,12.56
2017-10-21T06:06:55.706Z,12.57
2017-10-21T06:07:55.701Z,12.57
2017-10-21T06:08:55.688Z,12.59
2017-10-21T06:09:55.683Z,12.62
2017-10-21T06:10:55.675Z,12.68
2017-10-21T06:11:55.676Z,12.68
2017-10-21T06:12:55.663Z,12.68
2017-10-21T06:13:55.660Z,12.71
2017-10-21T06:14:55.641Z,12.68
2017-10-21T06:15:55.633Z,12.74
2017-10-21T06:16:55.628Z,12.75
2017-10-21T06:17:55.618Z,12.86
2017-10-21T06:18:55.608Z,12.86
2017-10-21T06:19:55.282Z,12.86
2017-10-21T06:20:55.597Z,13
2017-10-21T06:21:55.621Z,13.05
2017-10-21T06:22:55.258Z,13.01
2017-10-21T06:23:55.277Z,13.08
2017-10-21T06:24:55.571Z,13.14
2017-10-21T06:25:55.557Z,13.12
2017-10-21T06:26:55.653Z,13.22
2017-10-21T06:27:55.547Z,13.25
2017-10-21T06:28:55.538Z,13.29
2017-10-21T06:29:55.525Z,13.25
2017-10-21T06:30:55.522Z,13.39
2017-10-21T06:31:55.513Z,13.38
2017-10-21T06:32:55.507Z,13.49
2017-10-21T06:33:55.501Z,13.39
2017-10-21T06:34:55.489Z,13.52
2017-10-21T06:35:55.486Z,13.59
2017-10-21T06:36:55.478Z,13.55
2017-10-21T06:37:55.472Z,13.54
2017-10-21T06:38:55.464Z,13.55
2017-10-21T06:39:55.136Z,13.49
2017-10-21T06:40:55.451Z,13.63
2017-10-21T06:41:55.441Z,13.55
2017-10-21T06:42:55.436Z,13.62
2017-10-21T06:43:55.426Z,13.63
2017-10-21T06:44:55.419Z,13.66
2017-10-21T06:45:55.091Z,13.59
2017-10-21T06:46:55.409Z,13.67
2017-10-21T06:47:55.401Z,13.69
2017-10-21T06:48:55.399Z,13.69
2017-10-21T06:49:55.387Z,13.77
2017-10-21T06:50:55.384Z,13.73
2017-10-21T06:51:55.378Z,13.78
2017-10-21T06:52:55.367Z,13.75
2017-10-21T06:53:55.036Z,13.78
2017-10-21T06:54:55.350Z,13.82
2017-10-21T06:55:55.346Z,13.87
2017-10-21T06:56:55.370Z,13.92
2017-10-21T06:57:55.011Z,13.96
2017-10-21T06:58:55.000Z,13.88
2017-10-21T06:59:55.322Z,13.92
2017-10-21T07:00:54.986Z,13.88
2017-10-21T07:01:55.310Z,13.95
2017-10-21T07:02:54.976Z,13.97
2017-10-21T07:03:55.290Z,13.96
2017-10-21T07:04:55.315Z,14.07
2017-10-21T07:05:55.275Z,14.1
2017-10-21T07:06:54.945Z,14.12
2017-10-21T07:07:55.261Z,14.15
2017-10-21T07:08:55.257Z,14.15
2017-10-21T07:09:55.254Z,14.21
2017-10-21T07:10:54.917Z,14.24
2017-10-21T07:11:55.233Z,14.17
2017-10-21T07:12:55.228Z,14.24
2017-10-21T07:13:55.224Z,14.29
2017-10-21T07:14:55.211Z,14.28
2017-10-21T07:15:55.215Z,14.21
2017-10-21T07:16:54.887Z,14.27
2017-10-21T07:17:55.195Z,14.28
2017-10-21T07:18:55.188Z,14.28
2017-10-21T07:19:54.855Z,14.29
2017-10-21T07:20:54.853Z,14.29
2017-10-21T07:21:55.168Z,14.27
2017-10-21T07:22:55.157Z,14.27
2017-10-21T07:23:54.833Z,14.27
2017-10-21T07:24:54.822Z,14.4
2017-10-21T07:25:55.145Z,14.4
2017-10-21T07:26:55.129Z,14.46
2017-10-21T07:27:55.133Z,14.45
2017-10-21T07:28:55.119Z,14.45
2017-10-21T07:29:55.133Z,14.6
2017-10-21T07:30:54.784Z,14.5
2017-10-21T07:31:55.102Z,14.62
2017-10-21T07:32:55.091Z,14.58
2017-10-21T07:33:54.764Z,14.65
2017-10-21T07:34:55.082Z,14.72
2017-10-21T07:35:55.081Z,14.68
2017-10-21T07:36:55.073Z,14.8
2017-10-21T07:37:55.065Z,14.69
2017-10-21T07:38:55.054Z,14.77
2017-10-21T07:39:55.054Z,14.8
2017-10-21T07:40:55.059Z,14.75
2017-10-21T07:41:54.717Z,14.83
2017-10-21T07:42:54.713Z,14.89
2017-10-21T07:43:55.030Z,14.83
2017-10-21T07:44:54.693Z,14.92
2017-10-21T07:45:55.051Z,14.94
2017-10-21T07:46:54.683Z,14.98
2017-10-21T07:47:54.679Z,15.03
2017-10-21T07:48:54.993Z,15.06
2017-10-21T07:49:54.670Z,15.17
2017-10-21T07:50:54.977Z,15.17
2017-10-21T07:51:54.979Z,15.2
2017-10-21T07:52:54.644Z,15.25
2017-10-21T07:53:54.964Z,15.19
2017-10-21T07:54:54.971Z,15.27
2017-10-21T07:55:54.953Z,15.32
2017-10-21T07:56:54.622Z,15.39
2017-10-21T07:57:54.938Z,15.44
2017-10-21T07:58:54.942Z,15.41
2017-10-21T07:59:54.928Z,15.46
2017-10-21T08:00:54.921Z,15.53
2017-10-21T08:01:54.912Z,15.56
2017-10-21T08:02:54.912Z,15.57
2017-10-21T08:03:54.928Z,15.56
2017-10-21T08:04:54.902Z,15.67
2017-10-21T08:05:54.248Z,15.65
2017-10-21T08:06:54.891Z,15.71
2017-10-21T08:07:54.884Z,15.76
2017-10-21T08:08:54.883Z,15.8
2017-10-21T08:09:54.229Z,15.86
2017-10-21T08:10:54.864Z,15.92
2017-10-21T08:11:54.577Z,15.94
2017-10-21T08:12:54.859Z,15.96
2017-10-21T08:13:54.530Z,15.89
2017-10-21T08:14:54.849Z,16.01
2017-10-21T08:15:54.519Z,16.02
2017-10-21T08:16:54.839Z,16.07
2017-10-21T08:17:54.832Z,16.02
2017-10-21T08:18:54.502Z,16.02
2017-10-21T08:19:54.826Z,15.93
2017-10-21T08:20:54.824Z,15.96
2017-10-21T08:21:54.815Z,15.94
2017-10-21T08:22:54.805Z,16.09
2017-10-21T08:23:54.809Z,15.97
2017-10-21T08:24:54.795Z,15.92
2017-10-21T08:25:54.789Z,16.07
2017-10-21T08:26:54.793Z,16.12
2017-10-21T08:27:54.782Z,16.11
2017-10-21T08:28:54.774Z,16.11
2017-10-21T08:29:54.775Z,16.14
2017-10-21T08:30:54.766Z,16.04
2017-10-21T08:31:54.434Z,16.15
2017-10-21T08:32:54.754Z,16.09
2017-10-21T08:33:54.744Z,16.11
2017-10-21T08:34:54.749Z,16.12
2017-10-21T08:35:54.419Z,16.14
2017-10-21T08:36:54.738Z,16.2
2017-10-21T08:37:54.727Z,16.09
2017-10-21T08:38:55.060Z,16.12
2017-10-21T08:39:54.722Z,16.17
2017-10-21T08:40:54.714Z,16.15
2017-10-21T08:41:54.711Z,16.11
2017-10-21T08:42:54.702Z,16.12
2017-10-21T08:43:54.696Z,16.14
2017-10-21T08:44:54.370Z,16.07
2017-10-21T08:45:54.688Z,16.14
2017-10-21T08:46:54.365Z,16.08
2017-10-21T08:47:54.676Z,16.07
2017-10-21T08:48:54.023Z,16.05
2017-10-21T08:49:54.664Z,16.12
2017-10-21T08:50:54.348Z,16.04
2017-10-21T08:51:54.654Z,16.09
2017-10-21T08:52:54.652Z,16.08
2017-10-21T08:53:54.644Z,16.15
2017-10-21T08:54:54.642Z,16.11
2017-10-21T08:55:54.682Z,16.09
2017-10-21T08:56:54.628Z,16.09
2017-10-21T08:57:54.631Z,16.08
2017-10-21T08:58:54.620Z,16.2
2017-10-21T08:59:54.612Z,16.09
2017-10-21T09:00:54.284Z,16.12
2017-10-21T09:01:54.602Z,16.23
2017-10-21T09:02:53.952Z,16.09
2017-10-21T09:03:54.592Z,16.14
2017-10-21T09:04:54.586Z,16.08
2017-10-21T09:05:54.262Z,16.05
2017-10-21T09:06:54.587Z,16.15
2017-10-21T09:07:53.925Z,16.24
2017-10-21T09:08:54.565Z,16.21
2017-10-21T09:09:54.574Z,16.24
2017-10-21T09:10:54.228Z,16.34
2017-10-21T09:11:54.225Z,16.33
2017-10-21T09:12:54.546Z,16.35
2017-10-21T09:13:54.221Z,16.33
2017-10-21T09:14:54.540Z,16.34
2017-10-21T09:15:54.529Z,16.34
2017-10-21T09:16:54.531Z,16.42
2017-10-21T09:17:54.217Z,16.43
2017-10-21T09:18:54.515Z,16.46
2017-10-21T09:19:54.509Z,16.45
2017-10-21T09:20:54.503Z,16.52
2017-10-21T09:21:53.856Z,16.48
2017-10-21T09:22:53.847Z,16.49
2017-10-21T09:23:54.534Z,16.53
2017-10-21T09:24:54.490Z,16.56
2017-10-21T09:25:54.488Z,16.58
2017-10-21T09:26:53.833Z,16.57
2017-10-21T09:27:54.472Z,16.63
2017-10-21T09:28:54.480Z,16.6
2017-10-21T09:29:54.461Z,16.52
2017-10-21T09:30:54.450Z,16.48
2017-10-21T09:31:54.455Z,16.34
2017-10-21T09:32:54.437Z,16.35
2017-10-21T09:33:54.438Z,16.39
2017-10-21T09:34:54.434Z,16.25
2017-10-21T09:35:54.428Z,16.21
2017-10-21T09:36:54.427Z,16.14
2017-10-21T09:37:54.421Z,16.12
2017-10-21T09:38:54.411Z,16.09
2017-10-21T09:39:54.412Z,16.14
2017-10-21T09:40:54.402Z,16.11
2017-10-21T09:41:54.077Z,16.11
2017-10-21T09:42:54.075Z,16.12
2017-10-21T09:43:54.426Z,16.12
2017-10-21T09:44:54.385Z,16.09
2017-10-21T09:45:54.391Z,16.14
2017-10-21T09:46:54.374Z,16.14
2017-10-21T09:47:54.372Z,16.14
2017-10-21T09:48:54.365Z,16.07
2017-10-21T09:49:54.371Z,16.15
2017-10-21T09:50:54.044Z,16.12
2017-10-21T09:51:54.362Z,16.05
2017-10-21T09:52:54.344Z,16.04
2017-10-21T09:53:54.025Z,16.05
2017-10-21T09:54:54.332Z,16.09
2017-10-21T09:55:54.329Z,16.07
2017-10-21T09:56:54.320Z,16.07
2017-10-21T09:57:54.331Z,16.07
2017-10-21T09:58:54.317Z,16.04
2017-10-21T09:59:54.315Z,16.07
2017-10-21T10:00:54.301Z,16.05
2017-10-21T10:01:54.293Z,16.12
2017-10-21T10:02:54.301Z,16.07
2017-10-21T10:03:53.978Z,16.12
2017-10-21T10:04:54.279Z,16.14
2017-10-21T10:05:54.278Z,16.11
2017-10-21T10:06:54.273Z,16.2
2017-10-21T10:07:53.948Z,16.12
2017-10-21T10:08:53.940Z,16.09
2017-10-21T10:09:54.253Z,16.21
2017-10-21T10:10:53.928Z,16.07
2017-10-21T10:11:53.918Z,16.11
2017-10-21T10:12:54.238Z,16.15
2017-10-21T10:13:54.231Z,16.11
2017-10-21T10:14:54.233Z,16.14
2017-10-21T10:15:54.226Z,16.12
2017-10-21T10:16:54.222Z,16.21
2017-10-21T10:17:54.211Z,16.25
2017-10-21T10:18:54.208Z,16.25
2017-10-21T10:19:54.231Z,16.3
2017-10-21T10:20:53.877Z,16.38
2017-10-21T10:21:54.191Z,16.41
2017-10-21T10:22:53.541Z,16.43
2017-10-21T10:23:54.177Z,16.46
2017-10-21T10:24:54.185Z,16.48
2017-10-21T10:25:54.170Z,16.52
2017-10-21T10:26:54.177Z,16.56
2017-10-21T10:27:54.167Z,16.52
2017-10-21T10:28:54.156Z,16.66
2017-10-21T10:29:53.826Z,16.66
2017-10-21T10:30:54.147Z,16.76
2017-10-21T10:31:54.139Z,16.71
2017-10-21T10:32:53.810Z,16.78
2017-10-21T10:33:53.808Z,16.82
2017-10-21T10:34:54.128Z,16.85
2017-10-21T10:35:54.120Z,16.89
2017-10-21T10:36:53.814Z,16.89
2017-10-21T10:37:54.112Z,16.86
2017-10-21T10:38:54.107Z,16.97
2017-10-21T10:39:53.778Z,16.94
2017-10-21T10:40:54.363Z,16.97
2017-10-21T10:41:54.123Z,16.96
2017-10-21T10:42:54.088Z,17.01
2017-10-21T10:43:54.079Z,16.96
2017-10-21T10:44:54.095Z,16.94
2017-10-21T10:45:54.075Z,16.97
2017-10-21T10:46:54.066Z,17.01
2017-10-21T10:47:54.073Z,16.98
2017-10-21T10:48:54.065Z,17.03
2017-10-21T10:49:54.063Z,17.03
2017-10-21T10:50:53.739Z,17.03
2017-10-21T10:51:54.054Z,17.04
2017-10-21T10:52:53.722Z,17.14
2017-10-21T10:53:54.047Z,17.15
2017-10-21T10:54:54.035Z,17.12
2017-10-21T10:55:53.706Z,17.23
2017-10-21T10:56:54.029Z,17.23
2017-10-21T10:57:53.699Z,17.19
2017-10-21T10:58:53.691Z,17.23
2017-10-21T10:59:53.688Z,17.23
2017-10-21T11:00:54.001Z,17.19
2017-10-21T11:01:54.011Z,17.19
2017-10-21T11:02:53.671Z,17.12
2017-10-21T11:03:53.668Z,17.19
2017-10-21T11:04:53.984Z,17.23
2017-10-21T11:05:53.979Z,17.28
2017-10-21T11:06:53.989Z,17.25
2017-10-21T11:07:53.326Z,17.43
2017-10-21T11:08:53.322Z,17.41
2017-10-21T11:09:53.640Z,17.54
2017-10-21T11:10:53.314Z,17.62
2017-10-21T11:11:53.963Z,17.62
2017-10-21T11:12:53.304Z,17.58
2017-10-21T11:13:53.953Z,17.7
2017-10-21T11:14:53.956Z,17.79
2017-10-21T11:15:53.623Z,17.79
2017-10-21T11:16:53.932Z,17.84
2017-10-21T11:17:53.607Z,17.71
2017-10-21T11:18:53.924Z,17.79
2017-10-21T11:19:53.923Z,17.78
2017-10-21T11:20:53.918Z,17.79
2017-10-21T11:21:53.587Z,17.89
2017-10-21T11:22:53.592Z,17.87
2017-10-21T11:23:53.908Z,17.86
2017-10-21T11:24:53.914Z,17.75
2017-10-21T11:25:53.895Z,17.87
2017-10-21T11:26:53.897Z,17.87
2017-10-21T11:27:53.889Z,17.79
2017-10-21T11:28:53.893Z,17.79
2017-10-21T11:29:53.881Z,17.82
2017-10-21T11:30:53.881Z,17.81
2017-10-21T11:31:53.900Z,17.77
2017-10-21T11:32:53.878Z,17.64
2017-10-21T11:33:53.541Z,17.71
2017-10-21T11:34:53.863Z,17.66
2017-10-21T11:35:53.537Z,17.71
2017-10-21T11:36:53.531Z,17.66
2017-10-21T11:37:53.525Z,17.64
2017-10-21T11:38:53.842Z,17.63
2017-10-21T11:39:53.840Z,17.56
2017-10-21T11:40:53.513Z,17.58
2017-10-21T11:41:53.520Z,17.56
2017-10-21T11:42:53.830Z,17.56
2017-10-21T11:43:53.830Z,17.56
2017-10-21T11:44:53.837Z,17.55
2017-10-21T11:45:53.811Z,17.55
2017-10-21T11:46:53.491Z,17.48
2017-10-21T11:47:53.482Z,17.48
2017-10-21T11:48:53.479Z,17.49
2017-10-21T11:49:53.802Z,17.51
2017-10-21T11:50:53.475Z,17.52
2017-10-21T11:51:53.791Z,17.4
2017-10-21T11:52:53.459Z,17.41
2017-10-21T11:53:53.137Z,17.4
2017-10-21T11:54:53.450Z,17.37
2017-10-21T11:55:53.784Z,17.31
2017-10-21T11:56:53.772Z,17.26
2017-10-21T11:57:53.770Z,17.3
2017-10-21T11:58:53.437Z,17.43
2017-10-21T11:59:53.434Z,17.26
2017-10-21T12:00:53.430Z,17.41
2017-10-21T12:01:53.750Z,17.38
2017-10-21T12:02:53.746Z,17.38
2017-10-21T12:03:53.740Z,17.41
2017-10-21T12:04:53.740Z,17.41
2017-10-21T12:05:53.731Z,17.41
2017-10-21T12:06:53.403Z,17.41
2017-10-21T12:07:53.720Z,17.43
2017-10-21T12:08:53.403Z,17.43
2017-10-21T12:09:53.713Z,17.49
2017-10-21T12:10:53.711Z,17.51
2017-10-21T12:11:53.704Z,17.52
2017-10-21T12:12:53.703Z,17.58
2017-10-21T12:13:53.695Z,17.56
2017-10-21T12:14:53.698Z,17.49
2017-10-21T12:15:53.708Z,17.51
2017-10-21T12:16:53.682Z,17.48
2017-10-21T12:17:53.679Z,17.48
2017-10-21T12:18:53.679Z,17.43
2017-10-21T12:19:53.665Z,17.41
2017-10-21T12:20:53.665Z,17.34
2017-10-21T12:21:53.662Z,17.28
2017-10-21T12:22:53.657Z,17.22
2017-10-21T12:23:53.663Z,17.3
2017-10-21T12:24:53.649Z,17.23
2017-10-21T12:25:53.640Z,17.31
2017-10-21T12:26:53.652Z,17.38
2017-10-21T12:27:53.639Z,17.4
2017-10-21T12:28:53.310Z,17.36
2017-10-21T12:29:53.306Z,17.38
2017-10-21T12:30:53.624Z,17.31
2017-10-21T12:31:53.621Z,17.34
2017-10-21T12:32:53.619Z,17.4
2017-10-21T12:33:53.607Z,17.41
2017-10-21T12:34:53.614Z,17.4
2017-10-21T12:35:53.287Z,17.33
2017-10-21T12:36:53.602Z,17.33
2017-10-21T12:37:53.273Z,17.44
2017-10-21T12:38:53.598Z,17.41
2017-10-21T12:39:53.270Z,17.48
2017-10-21T12:40:53.580Z,17.44
2017-10-21T12:41:53.586Z,17.46
2017-10-21T12:42:53.252Z,17.46
2017-10-21T12:43:53.569Z,17.49
2017-10-21T12:44:53.564Z,17.66
2017-10-21T12:45:53.241Z,17.62
2017-10-21T12:46:53.234Z,17.62
2017-10-21T12:47:53.549Z,17.71
2017-10-21T12:48:53.549Z,17.66
2017-10-21T12:49:53.547Z,17.66
2017-10-21T12:50:53.212Z,17.66
2017-10-21T12:51:53.535Z,17.56
2017-10-21T12:52:53.209Z,17.44
2017-10-21T12:53:52.880Z,17.41
2017-10-21T12:54:53.201Z,17.4